createdAt,value
2022-12-25T00:01:44.695Z,-2.50
2022-12-25T00:04:14.711Z,-2.60
2022-12-25T00:06:42.760Z,-2.60
2022-12-25T00:09:13.634Z,-2.70
2022-12-25T00:11:40.905Z,-2.70
2022-12-25T00:14:08.539Z,-2.60
2022-12-25T00:16:35.778Z,-2.70
2022-12-25T00:19:03.692Z,-2.60
2022-12-25T00:21:31.865Z,-2.70
2022-12-25T00:23:59.756Z,-2.80
2022-12-25T00:26:27.799Z,-2.60
2022-12-25T00:28:57.158Z,-2.90
2022-12-25T00:31:27.061Z,-2.80
2022-12-25T00:33:57.270Z,-2.60
2022-12-25T00:36:25.245Z,-2.70
2022-12-25T00:38:52.321Z,-2.70
2022-12-25T00:41:42.577Z,-2.80
2022-12-25T00:44:14.529Z,-2.70
2022-12-25T00:46:42.517Z,-2.70
2022-12-25T00:49:11.451Z,-2.60
2022-12-25T00:51:39.568Z,-2.70
2022-12-25T00:54:10.422Z,-2.60
2022-12-25T00:56:37.920Z,-2.60
2022-12-25T00:59:05.784Z,-2.70
2022-12-25T01:01:34.185Z,-2.70
2022-12-25T01:04:01.761Z,-2.80
2022-12-25T01:06:30.119Z,-2.80
2022-12-25T01:09:17.949Z,-2.90
2022-12-25T01:11:45.326Z,-2.90
2022-12-25T01:14:16.504Z,-2.80
2022-12-25T01:16:44.203Z,-2.80
2022-12-25T01:19:12.387Z,-2.90
2022-12-25T01:21:39.683Z,-2.90
2022-12-25T01:24:09.677Z,-2.80
2022-12-25T01:26:37.470Z,-2.90
2022-12-25T01:29:04.663Z,-2.90
2022-12-25T01:31:32.640Z,-3.00
2022-12-25T01:34:06.070Z,-3.00
2022-12-25T01:36:39.072Z,-3.10
2022-12-25T01:39:06.932Z,-2.90
2022-12-25T01:41:34.753Z,-3.00
2022-12-25T01:44:06.051Z,-3.00
2022-12-25T01:46:34.641Z,-3.10
2022-12-25T01:49:10.086Z,-2.90
2022-12-25T01:51:44.947Z,-2.90
2022-12-25T01:54:23.303Z,-3.00
2022-12-25T01:56:52.916Z,-3.00
2022-12-25T01:59:24.047Z,-2.90
2022-12-25T02:01:52.368Z,-2.90
2022-12-25T02:04:39.345Z,-2.80
2022-12-25T02:09:58.416Z,-2.80
2022-12-25T02:12:34.505Z,-2.90
2022-12-25T02:15:10.292Z,-2.80
2022-12-25T02:17:47.996Z,-2.80
2022-12-25T02:20:15.651Z,-2.80
2022-12-25T02:22:52.145Z,-2.70
2022-12-25T02:25:47.420Z,-2.80
2022-12-25T02:28:28.799Z,-2.70
2022-12-25T02:31:08.208Z,-2.90
2022-12-25T02:34:05.317Z,-2.90
2022-12-25T02:36:45.767Z,-2.80
2022-12-25T02:40:00.798Z,-2.80
2022-12-25T02:42:53.954Z,-2.80
2022-12-25T02:45:59.282Z,-2.70
2022-12-25T02:48:49.008Z,-2.90
2022-12-25T02:51:37.378Z,-2.90
2022-12-25T02:54:29.261Z,-2.80
2022-12-25T02:57:17.362Z,-2.90
2022-12-25T03:00:08.228Z,-2.90
2022-12-25T03:02:57.192Z,-2.80
2022-12-25T03:05:45.571Z,-2.80
2022-12-25T03:08:23.322Z,-2.80
2022-12-25T03:11:20.220Z,-2.90
2022-12-25T03:13:53.313Z,-2.80
2022-12-25T03:16:39.628Z,-2.70
2022-12-25T03:19:26.768Z,-2.80
2022-12-25T03:22:14.688Z,-2.90
2022-12-25T03:25:01.547Z,-3.00
2022-12-25T03:27:35.577Z,-3.00
2022-12-25T03:30:24.977Z,-3.00
2022-12-25T03:33:23.363Z,-2.80
2022-12-25T03:36:11.642Z,-3.00
2022-12-25T03:39:16.582Z,-3.00
2022-12-25T03:42:06.798Z,-2.90
2022-12-25T03:45:30.981Z,-3.00
2022-12-25T03:48:28.435Z,-3.10
2022-12-25T03:51:26.075Z,-3.00
2022-12-25T03:54:22.567Z,-3.00
2022-12-25T03:57:09.577Z,-3.10
2022-12-25T03:59:58.234Z,-3.10
2022-12-25T04:02:44.409Z,-3.30
2022-12-25T04:05:34.272Z,-3.30
2022-12-25T04:08:21.206Z,-3.30
2022-12-25T04:11:06.783Z,-3.30
2022-12-25T04:13:55.566Z,-3.40
2022-12-25T04:16:41.411Z,-3.50
2022-12-25T04:19:28.339Z,-3.40
2022-12-25T04:22:19.517Z,-3.30
2022-12-25T04:28:08.204Z,-3.40
2022-12-25T04:30:54.129Z,-3.40
2022-12-25T04:33:48.906Z,-3.50
2022-12-25T04:36:16.404Z,-3.20
2022-12-25T04:38:44.321Z,-3.40
2022-12-25T04:41:14.058Z,-3.30
2022-12-25T04:43:41.492Z,-3.20
2022-12-25T04:46:12.106Z,-3.30
2022-12-25T04:48:39.233Z,-3.20
2022-12-25T04:51:21.659Z,-3.10
2022-12-25T04:53:50.543Z,-3.20
2022-12-25T04:56:18.445Z,-3.10
2022-12-25T04:58:46.943Z,-3.10
2022-12-25T05:01:16.469Z,-3.00
2022-12-25T05:03:43.823Z,-3.00
2022-12-25T05:06:16.522Z,-3.10
2022-12-25T05:08:44.027Z,-2.80
2022-12-25T05:11:20.525Z,-2.90
2022-12-25T05:13:50.848Z,-2.90
2022-12-25T05:16:23.246Z,-3.00
2022-12-25T05:18:57.701Z,-2.90
2022-12-25T05:21:25.049Z,-2.90
2022-12-25T05:23:53.786Z,-2.80
2022-12-25T05:26:24.101Z,-2.90
2022-12-25T05:28:59.225Z,-3.00
2022-12-25T05:31:26.529Z,-3.00
2022-12-25T05:33:56.468Z,-3.10
2022-12-25T05:36:26.496Z,-2.90
2022-12-25T05:38:56.309Z,-3.10
2022-12-25T05:41:32.209Z,-3.20
2022-12-25T05:44:02.976Z,-3.20
2022-12-25T05:46:30.680Z,-3.10
2022-12-25T05:48:58.019Z,-3.30
2022-12-25T05:51:26.601Z,-3.30
2022-12-25T05:53:53.955Z,-3.30
2022-12-25T05:56:21.536Z,-3.20
2022-12-25T05:58:51.880Z,-3.40
2022-12-25T06:01:27.827Z,-3.40
2022-12-25T06:03:56.596Z,-3.30
2022-12-25T06:06:23.820Z,-3.60
2022-12-25T06:08:53.112Z,-3.50
2022-12-25T06:11:23.707Z,-3.70
2022-12-25T06:13:52.196Z,-3.60
2022-12-25T06:16:24.402Z,-3.40
2022-12-25T06:18:58.156Z,-3.50
2022-12-25T06:21:30.357Z,-3.60
2022-12-25T06:23:57.923Z,-3.70
2022-12-25T06:26:28.896Z,-3.50
2022-12-25T06:28:56.454Z,-3.60
2022-12-25T06:31:24.594Z,-3.60
2022-12-25T06:33:52.335Z,-3.60
2022-12-25T06:36:28.137Z,-3.70
2022-12-25T06:38:57.355Z,-3.70
2022-12-25T06:41:26.521Z,-3.80
2022-12-25T06:44:02.575Z,-3.80
2022-12-25T06:46:33.486Z,-3.90
2022-12-25T06:49:01.597Z,-3.80
2022-12-25T06:51:33.902Z,-3.90
2022-12-25T06:54:04.528Z,-3.90
2022-12-25T06:56:32.806Z,-3.90
2022-12-25T06:59:08.861Z,-3.90
2022-12-25T07:01:37.932Z,-3.90
2022-12-25T07:04:08.116Z,-3.90
2022-12-25T07:06:41.980Z,-4.10
2022-12-25T07:09:09.161Z,-4.00
2022-12-25T07:11:36.508Z,-4.00
2022-12-25T07:14:07.281Z,-4.00
2022-12-25T07:16:35.075Z,-4.10
2022-12-25T07:19:03.083Z,-4.10
2022-12-25T07:21:30.715Z,-4.10
2022-12-25T07:23:58.120Z,-4.00
2022-12-25T07:26:25.629Z,-4.00
2022-12-25T07:28:55.729Z,-4.10
2022-12-25T07:31:23.396Z,-4.00
2022-12-25T07:33:57.337Z,-4.10
2022-12-25T07:36:24.522Z,-4.10
2022-12-25T07:38:52.457Z,-4.00
2022-12-25T07:41:20.238Z,-3.80
2022-12-25T07:43:52.707Z,-4.00
2022-12-25T07:46:21.565Z,-4.00
2022-12-25T07:48:52.619Z,-3.80
2022-12-25T07:51:19.992Z,-4.00
2022-12-25T07:53:47.709Z,-4.00
2022-12-25T07:56:23.630Z,-3.90
2022-12-25T07:58:51.029Z,-3.90
2022-12-25T08:01:22.178Z,-3.90
2022-12-25T08:04:01.170Z,-3.80
2022-12-25T08:06:37.115Z,-3.80
2022-12-25T08:09:12.998Z,-3.70
2022-12-25T08:11:44.828Z,-3.70
2022-12-25T08:14:20.004Z,-3.80
2022-12-25T08:16:47.460Z,-3.80
2022-12-25T08:19:15.487Z,-3.60
2022-12-25T08:21:43.242Z,-3.60
2022-12-25T08:24:17.717Z,-3.60
2022-12-25T08:26:50.076Z,-3.50
2022-12-25T08:29:17.650Z,-3.60
2022-12-25T08:31:46.702Z,-3.60
2022-12-25T08:34:14.657Z,-3.60
2022-12-25T08:36:42.118Z,-3.60
2022-12-25T08:39:11.627Z,-3.50
2022-12-25T08:41:38.986Z,-3.50
2022-12-25T08:44:07.154Z,-3.60
2022-12-25T08:46:39.981Z,-3.60
2022-12-25T08:49:13.609Z,-3.60
2022-12-25T08:51:41.362Z,-3.70
2022-12-25T08:54:10.067Z,-3.60
2022-12-25T08:56:38.042Z,-3.60
2022-12-25T08:59:08.031Z,-3.50
2022-12-25T09:01:39.192Z,-3.50
2022-12-25T09:04:14.378Z,-3.20
2022-12-25T09:06:45.275Z,-3.20
2022-12-25T09:09:12.397Z,-3.20
2022-12-25T09:11:39.756Z,-3.10
2022-12-25T09:14:10.101Z,-2.80
2022-12-25T09:16:37.348Z,-2.60
2022-12-25T09:19:10.447Z,-2.50
2022-12-25T09:21:40.507Z,-2.30
2022-12-25T09:24:08.398Z,-1.70
2022-12-25T09:26:39.408Z,-1.10
2022-12-25T09:29:06.686Z,-0.30
2022-12-25T09:31:34.591Z,0.30
2022-12-25T09:34:02.887Z,0.80
2022-12-25T09:36:30.536Z,1.00
2022-12-25T09:38:57.865Z,1.20
2022-12-25T09:41:33.971Z,1.60
2022-12-25T09:44:07.024Z,1.90
2022-12-25T09:47:20.448Z,2.10
2022-12-25T09:49:54.429Z,2.30
2022-12-25T09:52:43.366Z,2.20
2022-12-25T09:55:20.609Z,2.50
2022-12-25T09:57:55.115Z,2.20
2022-12-25T10:00:28.424Z,2.10
2022-12-25T10:03:32.245Z,2.10
2022-12-25T10:06:13.492Z,1.90
2022-12-25T10:09:11.178Z,2.00
2022-12-25T10:11:55.594Z,1.90
2022-12-25T10:14:58.704Z,1.40
2022-12-25T10:17:33.056Z,1.10
2022-12-25T10:20:27.415Z,1.00
2022-12-25T10:22:59.768Z,1.00
2022-12-25T10:25:27.391Z,1.20
2022-12-25T10:28:04.510Z,1.40
2022-12-25T10:30:32.705Z,1.40
2022-12-25T10:33:00.850Z,1.30
2022-12-25T10:35:30.857Z,1.30
2022-12-25T10:38:01.510Z,0.90
2022-12-25T10:40:49.926Z,0.60
2022-12-25T10:43:45.963Z,0.40
2022-12-25T10:46:22.965Z,0.10
2022-12-25T10:48:56.944Z,0.00
2022-12-25T10:51:42.578Z,0.00
2022-12-25T10:54:44.704Z,-0.20
2022-12-25T10:57:25.740Z,-0.50
2022-12-25T11:00:26.630Z,-0.70
2022-12-25T11:02:59.652Z,-1.20
2022-12-25T11:05:29.627Z,-1.20
2022-12-25T11:08:00.494Z,-1.20
2022-12-25T11:10:33.006Z,-1.40
2022-12-25T11:13:20.908Z,-1.70
2022-12-25T11:15:49.926Z,-1.90
2022-12-25T11:18:38.576Z,-1.80
2022-12-25T11:21:22.292Z,-1.70
2022-12-25T11:23:56.149Z,-1.80
2022-12-25T11:26:23.665Z,-2.00
2022-12-25T11:28:56.032Z,-1.80
2022-12-25T11:31:41.435Z,-1.80
2022-12-25T11:34:47.963Z,-1.50
2022-12-25T11:37:27.891Z,-1.50
2022-12-25T11:39:55.345Z,-1.50
2022-12-25T11:42:36.715Z,-1.50
2022-12-25T11:45:30.670Z,-1.40
2022-12-25T11:48:02.771Z,-1.30
2022-12-25T11:50:39.238Z,-1.30
2022-12-25T11:53:43.028Z,-1.10
2022-12-25T11:56:17.996Z,-0.90
2022-12-25T11:59:01.910Z,-1.10
2022-12-25T12:01:50.983Z,-0.80
2022-12-25T12:04:42.264Z,-0.70
2022-12-25T12:07:34.036Z,-0.60
2022-12-25T12:10:24.628Z,-0.60
2022-12-25T12:13:08.204Z,-0.50
2022-12-25T12:15:48.196Z,-0.40
2022-12-25T12:18:32.601Z,-0.60
2022-12-25T12:21:07.440Z,-0.60
2022-12-25T12:24:08.351Z,-0.50
2022-12-25T12:26:41.318Z,-0.60
2022-12-25T12:29:30.394Z,-0.50
2022-12-25T12:32:05.717Z,-0.50
2022-12-25T12:34:57.323Z,-0.60
2022-12-25T12:37:34.600Z,-0.70
2022-12-25T12:40:02.780Z,-0.80
2022-12-25T12:42:48.741Z,-0.90
2022-12-25T12:45:20.763Z,-0.60
2022-12-25T12:47:54.846Z,-0.80
2022-12-25T12:50:41.053Z,-0.60
2022-12-25T12:53:24.774Z,-0.50
2022-12-25T12:55:58.822Z,-0.80
2022-12-25T12:58:34.376Z,-0.90
2022-12-25T13:01:41.782Z,-0.80
2022-12-25T13:04:46.152Z,-0.80
2022-12-25T13:07:13.789Z,-0.90
2022-12-25T13:10:03.910Z,-0.70
2022-12-25T13:12:34.398Z,-0.90
2022-12-25T13:15:02.166Z,-1.00
2022-12-25T13:17:33.307Z,-1.00
2022-12-25T13:20:02.543Z,-0.90
2022-12-25T13:22:37.009Z,-0.80
2022-12-25T13:25:18.833Z,-0.90
2022-12-25T13:27:46.381Z,-0.90
2022-12-25T13:30:23.869Z,-1.20
2022-12-25T13:33:00.404Z,-1.20
2022-12-25T13:35:36.255Z,-1.00
2022-12-25T13:38:04.681Z,-1.00
2022-12-25T13:40:35.368Z,-1.00
2022-12-25T13:43:03.204Z,-1.10
2022-12-25T13:45:34.147Z,-0.90
2022-12-25T13:48:25.916Z,-1.10
2022-12-25T13:50:59.258Z,-1.00
2022-12-25T13:53:27.460Z,-1.10
2022-12-25T13:56:00.213Z,-1.10
2022-12-25T13:58:37.317Z,-1.00
2022-12-25T14:01:07.551Z,-1.10
2022-12-25T14:03:45.827Z,-1.20
2022-12-25T14:06:27.923Z,-1.30
2022-12-25T14:08:59.426Z,-1.50
2022-12-25T14:11:32.805Z,-1.50
2022-12-25T14:14:08.205Z,-1.40
2022-12-25T14:16:39.300Z,-1.60
2022-12-25T14:19:25.235Z,-1.40
2022-12-25T14:22:05.735Z,-1.40
2022-12-25T14:24:37.838Z,-1.50
2022-12-25T14:27:25.312Z,-1.40
2022-12-25T14:29:59.337Z,-1.60
2022-12-25T14:32:30.262Z,-1.40
2022-12-25T14:35:04.879Z,-1.60
2022-12-25T14:37:36.122Z,-1.60
2022-12-25T14:40:07.199Z,-1.90
2022-12-25T14:42:35.499Z,-1.70
2022-12-25T14:45:28.127Z,-1.60
2022-12-25T14:48:02.988Z,-1.80
2022-12-25T14:50:37.799Z,-1.60
2022-12-25T14:53:17.001Z,-1.90
2022-12-25T14:55:49.271Z,-1.80
2022-12-25T14:58:31.033Z,-2.00
2022-12-25T15:01:05.260Z,-1.90
2022-12-25T15:06:23.422Z,-2.00
2022-12-25T15:09:12.984Z,-1.90
2022-12-25T15:11:41.116Z,-1.80
2022-12-25T15:14:10.761Z,-1.90
2022-12-25T15:16:44.469Z,-1.70
2022-12-25T15:19:29.257Z,-1.70
2022-12-25T15:21:59.867Z,-1.60
2022-12-25T15:24:27.612Z,-1.60
2022-12-25T15:27:00.314Z,-1.50
2022-12-25T15:32:19.797Z,-1.70
2022-12-25T15:34:50.131Z,-1.70
2022-12-25T15:37:20.754Z,-1.80
2022-12-25T15:39:48.147Z,-1.80
2022-12-25T15:42:25.759Z,-1.80
2022-12-25T15:44:53.403Z,-1.80
2022-12-25T15:47:24.496Z,-1.90
2022-12-25T15:49:51.967Z,-1.90
2022-12-25T15:52:19.199Z,-1.80
2022-12-25T15:54:46.361Z,-1.90
2022-12-25T15:57:20.724Z,-2.10
2022-12-25T15:59:50.826Z,-2.10
2022-12-25T16:02:21.699Z,-2.00
2022-12-25T16:04:51.346Z,-2.20
2022-12-25T16:07:26.260Z,-2.10
2022-12-25T16:09:58.580Z,-2.20
2022-12-25T16:12:28.184Z,-2.20
2022-12-25T16:14:57.132Z,-2.10
2022-12-25T16:17:24.814Z,-2.20
2022-12-25T16:19:52.909Z,-2.30
2022-12-25T16:22:28.783Z,-2.40
2022-12-25T16:24:56.856Z,-2.30
2022-12-25T16:27:24.027Z,-2.20
2022-12-25T16:29:51.219Z,-2.30
2022-12-25T16:32:21.285Z,-2.50
2022-12-25T16:34:49.239Z,-2.50
2022-12-25T16:37:16.375Z,-2.70
2022-12-25T16:39:43.469Z,-2.40
2022-12-25T16:42:10.463Z,-2.60
2022-12-25T16:44:38.553Z,-2.60
2022-12-25T16:47:06.101Z,-2.60
2022-12-25T16:49:33.840Z,-2.50
2022-12-25T16:52:03.978Z,-2.40
2022-12-25T16:54:30.997Z,-2.40
2022-12-25T16:57:00.728Z,-2.50
2022-12-25T16:59:31.874Z,-2.40
2022-12-25T17:01:59.327Z,-2.50
2022-12-25T17:04:27.901Z,-2.40
2022-12-25T17:07:01.109Z,-2.40
2022-12-25T17:09:31.514Z,-2.40
2022-12-25T17:12:06.084Z,-2.50
2022-12-25T17:14:36.111Z,-2.40
2022-12-25T17:17:13.900Z,-2.40
2022-12-25T17:19:43.032Z,-2.30
2022-12-25T17:22:18.997Z,-2.40
2022-12-25T17:24:46.410Z,-2.20
2022-12-25T17:27:13.723Z,-2.40
2022-12-25T17:29:46.736Z,-2.50
2022-12-25T17:32:14.205Z,-2.50
2022-12-25T17:34:44.360Z,-2.60
2022-12-25T17:37:11.891Z,-2.70
2022-12-25T17:39:42.043Z,-2.70
2022-12-25T17:42:12.230Z,-2.60
2022-12-25T17:44:40.223Z,-2.70
2022-12-25T17:47:10.344Z,-2.60
2022-12-25T17:49:38.224Z,-2.50
2022-12-25T17:52:07.872Z,-2.50
2022-12-25T17:54:42.852Z,-2.50
2022-12-25T17:57:10.463Z,-2.50
2022-12-25T17:59:37.871Z,-2.60
2022-12-25T18:02:14.154Z,-2.60
2022-12-25T18:04:43.516Z,-2.90
2022-12-25T18:07:13.666Z,-3.10
2022-12-25T18:09:41.376Z,-3.30
2022-12-25T18:12:10.516Z,-3.20
2022-12-25T18:14:41.100Z,-3.20
2022-12-25T18:17:15.540Z,-3.30
2022-12-25T18:19:45.218Z,-3.20
2022-12-25T18:22:12.307Z,-3.30
2022-12-25T18:24:39.701Z,-3.30
2022-12-25T18:27:07.222Z,-3.30
2022-12-25T18:29:35.487Z,-3.20
2022-12-25T18:32:08.525Z,-3.30
2022-12-25T18:34:36.875Z,-3.20
2022-12-25T18:37:04.371Z,-3.30
2022-12-25T18:39:33.490Z,-3.30
2022-12-25T18:42:22.551Z,-3.30
2022-12-25T18:44:49.601Z,-3.30
2022-12-25T18:47:16.645Z,-3.30
2022-12-25T18:49:46.779Z,-3.30
2022-12-25T18:52:49.657Z,-3.40
2022-12-25T18:55:04.867Z,-3.30
2022-12-25T18:57:32.965Z,-3.40
2022-12-25T19:00:04.571Z,-3.50
2022-12-25T19:02:33.794Z,-3.50
2022-12-25T19:05:01.323Z,-3.60
2022-12-25T19:07:30.583Z,-3.50
2022-12-25T19:10:00.602Z,-3.50
2022-12-25T19:12:28.277Z,-3.50
2022-12-25T19:14:56.336Z,-3.60
2022-12-25T19:17:29.581Z,-3.50
2022-12-25T19:20:00.291Z,-3.40
2022-12-25T19:22:27.516Z,-3.50
2022-12-25T19:24:56.054Z,-3.30
2022-12-25T19:27:27.773Z,-3.60
2022-12-25T19:29:55.318Z,-3.50
2022-12-25T19:32:23.069Z,-3.50
2022-12-25T19:34:50.506Z,-3.50
2022-12-25T19:37:26.350Z,-3.40
2022-12-25T19:39:56.491Z,-3.30
2022-12-25T19:42:23.780Z,-3.40
2022-12-25T19:44:57.384Z,-3.30
2022-12-25T19:47:24.823Z,-3.30
2022-12-25T19:49:53.381Z,-3.20
2022-12-25T19:52:30.932Z,-3.40
2022-12-25T19:54:58.273Z,-3.30
2022-12-25T19:57:28.433Z,-3.40
2022-12-25T19:59:57.413Z,-3.40
2022-12-25T20:02:24.692Z,-3.50
2022-12-25T20:04:57.436Z,-3.30
2022-12-25T20:07:25.098Z,-3.10
2022-12-25T20:09:54.755Z,-3.40
2022-12-25T20:12:22.521Z,-3.40
2022-12-25T20:14:55.443Z,-3.30
2022-12-25T20:17:23.037Z,-3.30
2022-12-25T20:19:50.392Z,-3.40
2022-12-25T20:22:40.734Z,-3.30
2022-12-25T20:26:09.896Z,-3.20
2022-12-25T20:28:39.484Z,-3.40
2022-12-25T20:31:18.000Z,-3.40
2022-12-25T20:33:47.295Z,-3.30
2022-12-25T20:36:23.882Z,-3.10
2022-12-25T20:38:52.018Z,-3.30
2022-12-25T20:41:27.392Z,-3.30
2022-12-25T20:43:59.288Z,-3.40
2022-12-25T20:46:27.689Z,-3.40
2022-12-25T20:48:58.151Z,-3.50
2022-12-25T20:51:26.699Z,-3.60
2022-12-25T20:53:56.936Z,-3.70
2022-12-25T20:56:28.683Z,-3.70
2022-12-25T20:58:57.617Z,-3.60
2022-12-25T21:01:25.843Z,-3.80
2022-12-25T21:03:53.758Z,-3.80
2022-12-25T21:06:22.128Z,-3.70
2022-12-25T21:08:49.890Z,-3.80
2022-12-25T21:11:23.644Z,-3.60
2022-12-25T21:13:53.604Z,-3.80
2022-12-25T21:16:28.442Z,-3.70
2022-12-25T21:19:01.041Z,-3.60
2022-12-25T21:21:31.238Z,-3.70
2022-12-25T21:23:58.491Z,-3.70
2022-12-25T21:26:28.753Z,-3.70
2022-12-25T21:29:00.544Z,-3.80
2022-12-25T21:31:28.476Z,-3.80
2022-12-25T21:34:05.808Z,-4.00
2022-12-25T21:36:34.821Z,-4.10
2022-12-25T21:39:07.219Z,-4.00
2022-12-25T21:41:38.847Z,-4.10
2022-12-25T21:44:07.568Z,-4.00
2022-12-25T21:46:35.324Z,-4.10
2022-12-25T21:49:04.327Z,-4.00
2022-12-25T21:52:04.537Z,-4.10
2022-12-25T21:54:34.895Z,-4.10
2022-12-25T21:57:06.510Z,-4.10
2022-12-25T21:59:34.366Z,-4.00
2022-12-25T22:02:07.520Z,-4.00
2022-12-25T22:04:35.127Z,-4.00
2022-12-25T22:07:17.812Z,-4.10
2022-12-25T22:09:51.803Z,-4.00
2022-12-25T22:12:39.857Z,-4.00
2022-12-25T22:15:11.449Z,-4.00
2022-12-25T22:18:00.961Z,-4.00
2022-12-25T22:20:38.842Z,-3.90
2022-12-25T22:23:06.736Z,-4.00
2022-12-25T22:25:34.392Z,-4.20
2022-12-25T22:28:01.984Z,-4.10
2022-12-25T22:30:43.240Z,-4.00
2022-12-25T22:33:18.359Z,-4.10
2022-12-25T22:35:51.049Z,-3.90
2022-12-25T22:38:22.887Z,-4.20
2022-12-25T22:40:50.409Z,-4.10
2022-12-25T22:43:17.584Z,-4.30
2022-12-25T22:45:47.440Z,-4.30
2022-12-25T22:48:17.120Z,-4.30
2022-12-25T22:51:04.865Z,-4.30
2022-12-25T22:53:32.095Z,-4.30
2022-12-25T22:56:02.253Z,-4.30
2022-12-25T22:58:29.696Z,-4.30
2022-12-25T23:00:56.745Z,-4.30
2022-12-25T23:03:27.140Z,-4.30
2022-12-25T23:05:58.740Z,-4.30
2022-12-25T23:08:25.982Z,-4.40
2022-12-25T23:10:53.949Z,-4.40
2022-12-25T23:13:40.042Z,-4.40
2022-12-25T23:16:12.898Z,-4.30
2022-12-25T23:19:02.170Z,-4.40
2022-12-25T23:21:48.401Z,-4.30
2022-12-25T23:24:37.235Z,-4.30
2022-12-25T23:27:07.243Z,-4.40
2022-12-25T23:29:40.216Z,-4.40
2022-12-25T23:32:12.304Z,-4.30
2022-12-25T23:34:42.672Z,-4.40
2022-12-25T23:37:10.642Z,-4.40
2022-12-25T23:39:38.515Z,-4.40
2022-12-25T23:42:06.509Z,-4.50
2022-12-25T23:44:34.853Z,-4.50
2022-12-25T23:47:02.311Z,-4.50
2022-12-25T23:49:30.075Z,-4.50
2022-12-25T23:51:59.542Z,-4.50
2022-12-25T23:54:29.256Z,-4.40
2022-12-25T23:56:57.972Z,-4.30
2022-12-25T23:59:30.674Z,-4.40
